Jacksonville, FL

10:29 PM EDT on September 24, 2016 (GMT -0400)
Normandy Heights 32205 | | Change Station

Elev 20 ft 30.30 °N, 81.76 °W | Updated 27 seconds ago

Scattered Clouds
Scattered Clouds
77.4 °F
Feels Like 79 °F
N
0.0
Wind Variable Wind from SSW
Gusts 0.0 mph

Today
High -- | Low -- °F
--% Chance of Precip.
Yesterday
High -- | Low -- °F
Precip. -- in
Pressure 30.04 in
Visibility 10.0 miles
Clouds Scattered Clouds 25000 ft
Heat Index 79 °F
Dew Point 75 °F
Humidity 93%
Rainfall 0.00 in
Snow Depth Not available.
7:16 AM 7:20 PM
Waning Crescent, 32% visible
METAR KNIP 250153Z 16006KT 10SM SCT250 28/23 A3005 RMK AO2 SLP171 T02830228
Pressure 30.04 in
Visibility 10.0 miles
Clouds Scattered Clouds 25000 ft
Heat Index 79 °F
Dew Point 75 °F
Humidity 93%
Rainfall 0.00 in
Snow Depth Not available.
7:16 AM 7:20 PM
Waning Crescent, 32% visible
METAR KNIP 250153Z 16006KT 10SM SCT250 28/23 A3005 RMK AO2 SLP171 T02830228

10-Day Weather Forecast

Almanac

Astronomy

Sep. 24, 2016 Rise Set
Actual Time
Civil Twilight
Nautical Twilight
Astronomical Twilight
Moon
Length of Visible Light
Length of Day
Tomorrow will be .
, % of the Moon is Illuminated

Today's Extremes

State Highs State Lows

Community

WunderPhotos

Upload Photos

1,941,527 photos uploaded!

WunderBlog® & News

Nearby

Air Quality

  Air Quality AQ Index Pollutant
Not available.

Snow Depth

Station Depth Elevation

Earthquake Activity

City Distance Mag. Time & Date
Minimum magnitude displayed is 2.5.

Coastal Water Temperatures

Place Temperature

Stations

Nearby Weather Stations

Station Location Temp. Windchill Dew Point Humidity Wind Precip. Elev Updated Type
                   

Watches & Warnings

There are currently no watches in effect.